sensor_id;sensor_type;location;lat;lon;timestamp;P1;durP1;ratioP1;P2;durP2;ratioP2
9254;SDS011;4663;49.120;9.730;2022-10-28T00:05:07;21.60;;;20.10;;
9254;SDS011;4663;49.120;9.730;2022-10-28T00:07:32;20.92;;;19.45;;
9254;SDS011;4663;49.120;9.730;2022-10-28T00:09:58;24.77;;;22.98;;
9254;SDS011;4663;49.120;9.730;2022-10-28T00:12:23;24.42;;;22.92;;
9254;SDS011;4663;49.120;9.730;2022-10-28T00:14:48;22.95;;;21.48;;
9254;SDS011;4663;49.120;9.730;2022-10-28T00:17:14;22.02;;;20.75;;
9254;SDS011;4663;49.120;9.730;2022-10-28T00:19:39;24.02;;;22.00;;
9254;SDS011;4663;49.120;9.730;2022-10-28T00:22:04;25.50;;;20.88;;
9254;SDS011;4663;49.120;9.730;2022-10-28T00:24:30;22.52;;;20.73;;
9254;SDS011;4663;49.120;9.730;2022-10-28T00:26:55;22.08;;;20.67;;
9254;SDS011;4663;49.120;9.730;2022-10-28T00:29:21;22.05;;;20.52;;
9254;SDS011;4663;49.120;9.730;2022-10-28T00:31:46;22.00;;;20.35;;
9254;SDS011;4663;49.120;9.730;2022-10-28T00:34:13;23.83;;;21.88;;
9254;SDS011;4663;49.120;9.730;2022-10-28T00:36:41;22.88;;;21.20;;
9254;SDS011;4663;49.120;9.730;2022-10-28T00:39:09;24.13;;;22.42;;
9254;SDS011;4663;49.120;9.730;2022-10-28T00:41:38;25.52;;;23.55;;
9254;SDS011;4663;49.120;9.730;2022-10-28T00:49:42;22.95;;;21.27;;
9254;SDS011;4663;49.120;9.730;2022-10-28T00:52:12;21.88;;;20.38;;
9254;SDS011;4663;49.120;9.730;2022-10-28T00:54:42;24.13;;;22.52;;
9254;SDS011;4663;49.120;9.730;2022-10-28T00:57:11;24.42;;;22.92;;
9254;SDS011;4663;49.120;9.730;2022-10-28T00:59:40;23.23;;;21.73;;
9254;SDS011;4663;49.120;9.730;2022-10-28T01:02:09;22.92;;;21.33;;
9254;SDS011;4663;49.120;9.730;2022-10-28T01:04:35;20.42;;;19.13;;
9254;SDS011;4663;49.120;9.730;2022-10-28T01:07:02;21.95;;;20.35;;
9254;SDS011;4663;49.120;9.730;2022-10-28T01:09:27;23.25;;;21.63;;
9254;SDS011;4663;49.120;9.730;2022-10-28T01:23:30;19.67;;;18.38;;
9254;SDS011;4663;49.120;9.730;2022-10-28T01:31:56;19.83;;;18.50;;
9254;SDS011;4663;49.120;9.730;2022-10-28T01:40:06;19.73;;;18.23;;
9254;SDS011;4663;49.120;9.730;2022-10-28T01:47:47;22.13;;;20.73;;
9254;SDS011;4663;49.120;9.730;2022-10-28T01:50:16;20.50;;;19.20;;
9254;SDS011;4663;49.120;9.730;2022-10-28T01:52:46;20.58;;;19.27;;
9254;SDS011;4663;49.120;9.730;2022-10-28T01:55:16;20.50;;;19.17;;
9254;SDS011;4663;49.120;9.730;2022-10-28T01:57:46;20.65;;;19.35;;
9254;SDS011;4663;49.120;9.730;2022-10-28T02:00:15;21.83;;;20.40;;
9254;SDS011;4663;49.120;9.730;2022-10-28T02:02:41;20.70;;;19.38;;
9254;SDS011;4663;49.120;9.730;2022-10-28T02:13:49;20.10;;;18.80;;
9254;SDS011;4663;49.120;9.730;2022-10-28T02:19:10;19.75;;;18.13;;
9254;SDS011;4663;49.120;9.730;2022-10-28T02:24:17;19.70;;;18.30;;
9254;SDS011;4663;49.120;9.730;2022-10-28T02:26:51;20.10;;;18.75;;
9254;SDS011;4663;49.120;9.730;2022-10-28T02:29:31;20.02;;;18.45;;
9254;SDS011;4663;49.120;9.730;2022-10-28T02:32:07;22.48;;;20.98;;
9254;SDS011;4663;49.120;9.730;2022-10-28T02:34:36;21.70;;;20.25;;
9254;SDS011;4663;49.120;9.730;2022-10-28T02:37:11;21.80;;;20.02;;
9254;SDS011;4663;49.120;9.730;2022-10-28T02:39:41;23.52;;;21.83;;
9254;SDS011;4663;49.120;9.730;2022-10-28T02:42:14;22.70;;;21.00;;
9254;SDS011;4663;49.120;9.730;2022-10-28T02:44:54;21.55;;;20.15;;
9254;SDS011;4663;49.120;9.730;2022-10-28T02:47:26;21.17;;;19.52;;
9254;SDS011;4663;49.120;9.730;2022-10-28T02:49:56;20.70;;;19.08;;
9254;SDS011;4663;49.120;9.730;2022-10-28T02:52:26;20.75;;;19.35;;
9254;SDS011;4663;49.120;9.730;2022-10-28T02:54:54;20.45;;;19.20;;
9254;SDS011;4663;49.120;9.730;2022-10-28T02:57:23;23.02;;;21.50;;
9254;SDS011;4663;49.120;9.730;2022-10-28T02:59:55;22.92;;;21.42;;
9254;SDS011;4663;49.120;9.730;2022-10-28T03:02:22;21.02;;;19.20;;
9254;SDS011;4663;49.120;9.730;2022-10-28T03:04:47;22.48;;;20.88;;
9254;SDS011;4663;49.120;9.730;2022-10-28T03:07:12;22.88;;;21.17;;
9254;SDS011;4663;49.120;9.730;2022-10-28T03:09:38;20.73;;;19.38;;
9254;SDS011;4663;49.120;9.730;2022-10-28T03:12:03;20.98;;;19.60;;
9254;SDS011;4663;49.120;9.730;2022-10-28T03:14:29;19.73;;;18.38;;
9254;SDS011;4663;49.120;9.730;2022-10-28T03:16:54;19.63;;;18.33;;
9254;SDS011;4663;49.120;9.730;2022-10-28T03:19:19;20.95;;;19.65;;
9254;SDS011;4663;49.120;9.730;2022-10-28T03:21:45;20.88;;;19.48;;
9254;SDS011;4663;49.120;9.730;2022-10-28T03:24:10;20.23;;;18.50;;
9254;SDS011;4663;49.120;9.730;2022-10-28T03:26:36;19.33;;;18.13;;
9254;SDS011;4663;49.120;9.730;2022-10-28T03:29:01;21.92;;;20.10;;
9254;SDS011;4663;49.120;9.730;2022-10-28T03:31:27;20.60;;;19.00;;
9254;SDS011;4663;49.120;9.730;2022-10-28T03:33:52;22.23;;;20.50;;
9254;SDS011;4663;49.120;9.730;2022-10-28T03:36:17;20.95;;;19.20;;
9254;SDS011;4663;49.120;9.730;2022-10-28T03:38:43;21.45;;;20.05;;
9254;SDS011;4663;49.120;9.730;2022-10-28T03:41:08;20.70;;;19.42;;
9254;SDS011;4663;49.120;9.730;2022-10-28T03:43:33;20.40;;;19.10;;
9254;SDS011;4663;49.120;9.730;2022-10-28T03:45:59;20.92;;;19.23;;
9254;SDS011;4663;49.120;9.730;2022-10-28T03:48:24;22.23;;;20.77;;
9254;SDS011;4663;49.120;9.730;2022-10-28T03:50:53;21.02;;;19.58;;
9254;SDS011;4663;49.120;9.730;2022-10-28T03:53:19;20.10;;;18.80;;
9254;SDS011;4663;49.120;9.730;2022-10-28T03:55:55;21.80;;;19.95;;
9254;SDS011;4663;49.120;9.730;2022-10-28T03:58:21;20.27;;;18.98;;
9254;SDS011;4663;49.120;9.730;2022-10-28T04:00:48;22.00;;;20.20;;
9254;SDS011;4663;49.120;9.730;2022-10-28T04:03:14;21.65;;;20.02;;
9254;SDS011;4663;49.120;9.730;2022-10-28T04:05:41;19.98;;;18.70;;
9254;SDS011;4663;49.120;9.730;2022-10-28T04:08:06;20.67;;;19.00;;
9254;SDS011;4663;49.120;9.730;2022-10-28T04:10:32;21.10;;;19.35;;
9254;SDS011;4663;49.120;9.730;2022-10-28T04:13:01;20.23;;;18.63;;
9254;SDS011;4663;49.120;9.730;2022-10-28T04:15:27;20.88;;;19.48;;
9254;SDS011;4663;49.120;9.730;2022-10-28T04:17:52;21.92;;;19.98;;
9254;SDS011;4663;49.120;9.730;2022-10-28T04:20:18;21.05;;;19.45;;
9254;SDS011;4663;49.120;9.730;2022-10-28T04:22:43;21.40;;;19.85;;
9254;SDS011;4663;49.120;9.730;2022-10-28T04:25:09;21.50;;;19.95;;
9254;SDS011;4663;49.120;9.730;2022-10-28T04:27:34;21.45;;;19.92;;
9254;SDS011;4663;49.120;9.730;2022-10-28T04:30:00;21.70;;;20.05;;
9254;SDS011;4663;49.120;9.730;2022-10-28T04:32:25;23.27;;;21.60;;
9254;SDS011;4663;49.120;9.730;2022-10-28T04:34:51;21.77;;;20.13;;
9254;SDS011;4663;49.120;9.730;2022-10-28T04:37:16;21.63;;;20.10;;
9254;SDS011;4663;49.120;9.730;2022-10-28T04:39:42;22.45;;;20.70;;
9254;SDS011;4663;49.120;9.730;2022-10-28T04:42:07;20.45;;;19.13;;
9254;SDS011;4663;49.120;9.730;2022-10-28T04:44:32;21.67;;;19.88;;
9254;SDS011;4663;49.120;9.730;2022-10-28T04:46:58;22.05;;;20.65;;
9254;SDS011;4663;49.120;9.730;2022-10-28T04:49:23;21.15;;;19.75;;
9254;SDS011;4663;49.120;9.730;2022-10-28T04:51:49;21.88;;;20.38;;
9254;SDS011;4663;49.120;9.730;2022-10-28T04:54:14;21.58;;;20.27;;
9254;SDS011;4663;49.120;9.730;2022-10-28T04:56:39;21.67;;;20.05;;
9254;SDS011;4663;49.120;9.730;2022-10-28T04:59:05;23.13;;;20.98;;
9254;SDS011;4663;49.120;9.730;2022-10-28T05:01:30;22.05;;;20.35;;
9254;SDS011;4663;49.120;9.730;2022-10-28T05:03:55;23.48;;;21.77;;
9254;SDS011;4663;49.120;9.730;2022-10-28T05:06:20;20.80;;;19.35;;
9254;SDS011;4663;49.120;9.730;2022-10-28T05:08:46;22.60;;;21.08;;
9254;SDS011;4663;49.120;9.730;2022-10-28T05:11:11;23.23;;;21.73;;
9254;SDS011;4663;49.120;9.730;2022-10-28T05:13:36;22.00;;;20.40;;
9254;SDS011;4663;49.120;9.730;2022-10-28T05:16:02;22.00;;;20.48;;
9254;SDS011;4663;49.120;9.730;2022-10-28T05:18:27;21.90;;;20.20;;
9254;SDS011;4663;49.120;9.730;2022-10-28T05:20:53;22.40;;;21.00;;
9254;SDS011;4663;49.120;9.730;2022-10-28T05:23:22;22.30;;;20.77;;
9254;SDS011;4663;49.120;9.730;2022-10-28T05:25:48;21.75;;;20.25;;
9254;SDS011;4663;49.120;9.730;2022-10-28T05:28:15;21.83;;;20.23;;
9254;SDS011;4663;49.120;9.730;2022-10-28T05:30:41;22.40;;;20.75;;
9254;SDS011;4663;49.120;9.730;2022-10-28T05:33:07;22.55;;;21.05;;
9254;SDS011;4663;49.120;9.730;2022-10-28T05:35:32;21.58;;;20.17;;
9254;SDS011;4663;49.120;9.730;2022-10-28T05:37:58;21.30;;;19.95;;
9254;SDS011;4663;49.120;9.730;2022-10-28T05:40:23;22.42;;;21.10;;
9254;SDS011;4663;49.120;9.730;2022-10-28T05:42:49;22.88;;;20.83;;
9254;SDS011;4663;49.120;9.730;2022-10-28T05:45:14;21.42;;;19.90;;
9254;SDS011;4663;49.120;9.730;2022-10-28T05:47:46;20.88;;;19.45;;
9254;SDS011;4663;49.120;9.730;2022-10-28T05:50:13;22.45;;;20.85;;
9254;SDS011;4663;49.120;9.730;2022-10-28T05:52:46;23.38;;;21.75;;
9254;SDS011;4663;49.120;9.730;2022-10-28T05:55:13;21.50;;;20.20;;
9254;SDS011;4663;49.120;9.730;2022-10-28T05:57:39;23.58;;;21.77;;
9254;SDS011;4663;49.120;9.730;2022-10-28T06:00:05;21.33;;;19.90;;
9254;SDS011;4663;49.120;9.730;2022-10-28T06:02:31;20.77;;;19.42;;
9254;SDS011;4663;49.120;9.730;2022-10-28T06:04:56;21.17;;;19.58;;
9254;SDS011;4663;49.120;9.730;2022-10-28T06:07:21;21.40;;;20.08;;
9254;SDS011;4663;49.120;9.730;2022-10-28T06:09:48;20.88;;;19.67;;
9254;SDS011;4663;49.120;9.730;2022-10-28T06:12:14;45.25;;;42.53;;
9254;SDS011;4663;49.120;9.730;2022-10-28T06:14:40;21.52;;;19.92;;
9254;SDS011;4663;49.120;9.730;2022-10-28T06:17:05;21.90;;;20.52;;
9254;SDS011;4663;49.120;9.730;2022-10-28T06:19:31;21.05;;;19.63;;
9254;SDS011;4663;49.120;9.730;2022-10-28T06:21:56;22.05;;;20.55;;
9254;SDS011;4663;49.120;9.730;2022-10-28T06:24:21;22.75;;;21.30;;
9254;SDS011;4663;49.120;9.730;2022-10-28T06:26:47;21.25;;;19.95;;
9254;SDS011;4663;49.120;9.730;2022-10-28T06:29:13;20.73;;;19.25;;
9254;SDS011;4663;49.120;9.730;2022-10-28T06:31:38;20.58;;;19.05;;
9254;SDS011;4663;49.120;9.730;2022-10-28T06:34:07;23.83;;;21.92;;
9254;SDS011;4663;49.120;9.730;2022-10-28T06:36:36;22.00;;;20.17;;
9254;SDS011;4663;49.120;9.730;2022-10-28T06:39:03;21.27;;;19.98;;
9254;SDS011;4663;49.120;9.730;2022-10-28T06:41:28;21.45;;;19.98;;
9254;SDS011;4663;49.120;9.730;2022-10-28T06:43:54;21.88;;;20.25;;
9254;SDS011;4663;49.120;9.730;2022-10-28T06:46:19;21.35;;;19.80;;
9254;SDS011;4663;49.120;9.730;2022-10-28T06:48:45;21.50;;;20.15;;
9254;SDS011;4663;49.120;9.730;2022-10-28T06:51:10;21.60;;;20.10;;
9254;SDS011;4663;49.120;9.730;2022-10-28T06:53:35;23.25;;;21.77;;
9254;SDS011;4663;49.120;9.730;2022-10-28T06:56:01;25.60;;;23.60;;
9254;SDS011;4663;49.120;9.730;2022-10-28T06:58:26;24.95;;;23.38;;
9254;SDS011;4663;49.120;9.730;2022-10-28T07:00:52;26.23;;;24.58;;
9254;SDS011;4663;49.120;9.730;2022-10-28T07:03:18;28.27;;;26.52;;
9254;SDS011;4663;49.120;9.730;2022-10-28T07:05:45;31.25;;;29.25;;
9254;SDS011;4663;49.120;9.730;2022-10-28T07:08:11;30.85;;;29.05;;
9254;SDS011;4663;49.120;9.730;2022-10-28T07:10:38;34.55;;;31.77;;
9254;SDS011;4663;49.120;9.730;2022-10-28T07:13:04;35.70;;;33.55;;
9254;SDS011;4663;49.120;9.730;2022-10-28T07:15:29;34.05;;;31.75;;
9254;SDS011;4663;49.120;9.730;2022-10-28T07:17:55;35.50;;;33.30;;
9254;SDS011;4663;49.120;9.730;2022-10-28T07:20:22;36.42;;;34.20;;
9254;SDS011;4663;49.120;9.730;2022-10-28T07:22:54;35.15;;;32.95;;
9254;SDS011;4663;49.120;9.730;2022-10-28T07:25:23;37.33;;;34.83;;
9254;SDS011;4663;49.120;9.730;2022-10-28T07:27:49;33.42;;;31.55;;
9254;SDS011;4663;49.120;9.730;2022-10-28T07:30:14;30.92;;;28.92;;
9254;SDS011;4663;49.120;9.730;2022-10-28T07:32:40;31.92;;;29.77;;
9254;SDS011;4663;49.120;9.730;2022-10-28T07:35:05;32.90;;;30.33;;
9254;SDS011;4663;49.120;9.730;2022-10-28T07:37:31;31.02;;;29.15;;
9254;SDS011;4663;49.120;9.730;2022-10-28T07:39:56;29.17;;;27.23;;
9254;SDS011;4663;49.120;9.730;2022-10-28T07:42:22;26.25;;;24.45;;
9254;SDS011;4663;49.120;9.730;2022-10-28T07:44:47;28.85;;;26.92;;
9254;SDS011;4663;49.120;9.730;2022-10-28T07:47:12;26.73;;;24.45;;
9254;SDS011;4663;49.120;9.730;2022-10-28T07:49:38;24.30;;;22.55;;
9254;SDS011;4663;49.120;9.730;2022-10-28T07:52:03;24.10;;;22.10;;
9254;SDS011;4663;49.120;9.730;2022-10-28T07:54:29;22.40;;;20.95;;
9254;SDS011;4663;49.120;9.730;2022-10-28T07:56:55;22.42;;;20.80;;
9254;SDS011;4663;49.120;9.730;2022-10-28T07:59:22;22.90;;;21.20;;
9254;SDS011;4663;49.120;9.730;2022-10-28T08:01:48;23.48;;;21.98;;
9254;SDS011;4663;49.120;9.730;2022-10-28T08:04:14;27.08;;;25.10;;
9254;SDS011;4663;49.120;9.730;2022-10-28T08:06:39;26.05;;;24.23;;
9254;SDS011;4663;49.120;9.730;2022-10-28T08:09:04;31.20;;;29.30;;
9254;SDS011;4663;49.120;9.730;2022-10-28T08:11:30;37.90;;;35.35;;
9254;SDS011;4663;49.120;9.730;2022-10-28T08:13:55;39.40;;;36.97;;
9254;SDS011;4663;49.120;9.730;2022-10-28T08:16:21;40.92;;;38.40;;
9254;SDS011;4663;49.120;9.730;2022-10-28T08:18:46;39.72;;;37.00;;
9254;SDS011;4663;49.120;9.730;2022-10-28T08:21:12;38.35;;;35.80;;
9254;SDS011;4663;49.120;9.730;2022-10-28T08:23:38;34.83;;;32.83;;
9254;SDS011;4663;49.120;9.730;2022-10-28T08:26:05;34.90;;;32.72;;
9254;SDS011;4663;49.120;9.730;2022-10-28T08:28:31;34.85;;;32.45;;
9254;SDS011;4663;49.120;9.730;2022-10-28T08:31:01;32.10;;;30.10;;
9254;SDS011;4663;49.120;9.730;2022-10-28T08:33:27;31.67;;;29.55;;
9254;SDS011;4663;49.120;9.730;2022-10-28T08:35:52;33.05;;;30.75;;
9254;SDS011;4663;49.120;9.730;2022-10-28T08:38:18;29.83;;;27.48;;
9254;SDS011;4663;49.120;9.730;2022-10-28T08:46:09;23.52;;;21.73;;
9254;SDS011;4663;49.120;9.730;2022-10-28T08:48:44;21.73;;;19.90;;
9254;SDS011;4663;49.120;9.730;2022-10-28T08:53:50;21.30;;;19.65;;
9254;SDS011;4663;49.120;9.730;2022-10-28T08:56:34;22.90;;;21.10;;
9254;SDS011;4663;49.120;9.730;2022-10-28T08:59:12;21.33;;;19.70;;
9254;SDS011;4663;49.120;9.730;2022-10-28T09:01:45;26.38;;;24.50;;
9254;SDS011;4663;49.120;9.730;2022-10-28T09:07:03;37.45;;;35.38;;
9254;SDS011;4663;49.120;9.730;2022-10-28T09:09:29;39.58;;;37.25;;
9254;SDS011;4663;49.120;9.730;2022-10-28T09:14:37;33.97;;;31.42;;
9254;SDS011;4663;49.120;9.730;2022-10-28T09:19:39;28.55;;;26.63;;
9254;SDS011;4663;49.120;9.730;2022-10-28T09:25:18;31.00;;;29.13;;
9254;SDS011;4663;49.120;9.730;2022-10-28T09:30:35;28.70;;;27.10;;
9254;SDS011;4663;49.120;9.730;2022-10-28T09:33:07;25.35;;;23.90;;
9254;SDS011;4663;49.120;9.730;2022-10-28T09:35:52;26.05;;;24.20;;
9254;SDS011;4663;49.120;9.730;2022-10-28T09:41:00;23.58;;;21.95;;
9254;SDS011;4663;49.120;9.730;2022-10-28T09:43:31;24.98;;;23.13;;
9254;SDS011;4663;49.120;9.730;2022-10-28T09:46:09;24.38;;;22.63;;
9254;SDS011;4663;49.120;9.730;2022-10-28T09:48:38;22.60;;;20.98;;
9254;SDS011;4663;49.120;9.730;2022-10-28T09:51:15;23.17;;;21.40;;
9254;SDS011;4663;49.120;9.730;2022-10-28T09:54:09;24.05;;;22.50;;
9254;SDS011;4663;49.120;9.730;2022-10-28T09:56:36;24.05;;;22.35;;
9254;SDS011;4663;49.120;9.730;2022-10-28T09:59:02;28.45;;;26.65;;
9254;SDS011;4663;49.120;9.730;2022-10-28T10:01:38;30.98;;;29.08;;
9254;SDS011;4663;49.120;9.730;2022-10-28T10:04:11;37.15;;;34.58;;
9254;SDS011;4663;49.120;9.730;2022-10-28T10:06:46;37.42;;;34.97;;
9254;SDS011;4663;49.120;9.730;2022-10-28T10:09:18;36.13;;;33.92;;
9254;SDS011;4663;49.120;9.730;2022-10-28T10:11:47;38.75;;;36.38;;
9254;SDS011;4663;49.120;9.730;2022-10-28T10:14:15;31.52;;;29.65;;
9254;SDS011;4663;49.120;9.730;2022-10-28T10:17:44;26.48;;;24.95;;
9254;SDS011;4663;49.120;9.730;2022-10-28T10:22:32;23.92;;;21.98;;
9254;SDS011;4663;49.120;9.730;2022-10-28T10:25:00;23.65;;;21.65;;
9254;SDS011;4663;49.120;9.730;2022-10-28T10:27:26;23.08;;;21.63;;
9254;SDS011;4663;49.120;9.730;2022-10-28T10:29:54;21.05;;;19.70;;
9254;SDS011;4663;49.120;9.730;2022-10-28T10:32:24;20.60;;;19.10;;
9254;SDS011;4663;49.120;9.730;2022-10-28T10:37:23;27.52;;;25.58;;
9254;SDS011;4663;49.120;9.730;2022-10-28T10:40:03;31.48;;;29.05;;
9254;SDS011;4663;49.120;9.730;2022-10-28T10:42:48;27.08;;;25.42;;
9254;SDS011;4663;49.120;9.730;2022-10-28T10:47:39;26.48;;;24.80;;
9254;SDS011;4663;49.120;9.730;2022-10-28T10:53:01;27.65;;;25.52;;
9254;SDS011;4663;49.120;9.730;2022-10-28T10:58:06;26.38;;;24.45;;
9254;SDS011;4663;49.120;9.730;2022-10-28T11:00:44;25.25;;;23.33;;
9254;SDS011;4663;49.120;9.730;2022-10-28T11:03:17;26.27;;;24.48;;
9254;SDS011;4663;49.120;9.730;2022-10-28T11:05:53;26.75;;;24.90;;
9254;SDS011;4663;49.120;9.730;2022-10-28T11:08:30;25.40;;;23.30;;
9254;SDS011;4663;49.120;9.730;2022-10-28T11:11:02;24.95;;;23.30;;
9254;SDS011;4663;49.120;9.730;2022-10-28T11:13:29;24.65;;;23.17;;
9254;SDS011;4663;49.120;9.730;2022-10-28T11:16:03;24.98;;;23.02;;
9254;SDS011;4663;49.120;9.730;2022-10-28T11:18:50;25.65;;;23.67;;
9254;SDS011;4663;49.120;9.730;2022-10-28T11:26:28;25.90;;;24.20;;
9254;SDS011;4663;49.120;9.730;2022-10-28T11:31:37;26.17;;;23.65;;
9254;SDS011;4663;49.120;9.730;2022-10-28T11:42:33;24.10;;;22.65;;
9254;SDS011;4663;49.120;9.730;2022-10-28T12:04:05;28.83;;;27.13;;
9254;SDS011;4663;49.120;9.730;2022-10-28T12:09:57;29.15;;;27.35;;
9254;SDS011;4663;49.120;9.730;2022-10-28T12:12:32;28.52;;;26.75;;
9254;SDS011;4663;49.120;9.730;2022-10-28T12:20:44;29.65;;;28.08;;
9254;SDS011;4663;49.120;9.730;2022-10-28T12:23:23;28.77;;;26.90;;
9254;SDS011;4663;49.120;9.730;2022-10-28T12:25:50;30.88;;;29.15;;
9254;SDS011;4663;49.120;9.730;2022-10-28T12:30:50;29.17;;;27.35;;
9254;SDS011;4663;49.120;9.730;2022-10-28T12:33:25;25.55;;;24.13;;
9254;SDS011;4663;49.120;9.730;2022-10-28T12:36:11;27.67;;;26.15;;
9254;SDS011;4663;49.120;9.730;2022-10-28T12:44:50;29.75;;;27.80;;
9254;SDS011;4663;49.120;9.730;2022-10-28T12:55:44;27.20;;;25.55;;
9254;SDS011;4663;49.120;9.730;2022-10-28T12:58:19;27.15;;;25.67;;
9254;SDS011;4663;49.120;9.730;2022-10-28T13:00:55;26.85;;;25.42;;
9254;SDS011;4663;49.120;9.730;2022-10-28T13:03:24;25.50;;;24.20;;
9254;SDS011;4663;49.120;9.730;2022-10-28T13:11:20;24.20;;;22.65;;
9254;SDS011;4663;49.120;9.730;2022-10-28T13:16:51;25.10;;;23.52;;
9254;SDS011;4663;49.120;9.730;2022-10-28T13:19:23;23.77;;;22.17;;
9254;SDS011;4663;49.120;9.730;2022-10-28T13:27:04;23.42;;;22.17;;
9254;SDS011;4663;49.120;9.730;2022-10-28T13:29:34;23.67;;;22.38;;
9254;SDS011;4663;49.120;9.730;2022-10-28T13:32:02;21.42;;;20.00;;
9254;SDS011;4663;49.120;9.730;2022-10-28T13:34:29;21.65;;;20.33;;
9254;SDS011;4663;49.120;9.730;2022-10-28T13:36:58;22.02;;;20.92;;
9254;SDS011;4663;49.120;9.730;2022-10-28T13:44:53;23.15;;;21.80;;
9254;SDS011;4663;49.120;9.730;2022-10-28T13:47:29;37.67;;;35.65;;
9254;SDS011;4663;49.120;9.730;2022-10-28T13:57:56;22.63;;;21.33;;
9254;SDS011;4663;49.120;9.730;2022-10-28T14:10:24;24.05;;;22.65;;
9254;SDS011;4663;49.120;9.730;2022-10-28T14:15:47;25.50;;;23.83;;
9254;SDS011;4663;49.120;9.730;2022-10-28T14:50:22;28.48;;;26.48;;
9254;SDS011;4663;49.120;9.730;2022-10-28T14:52:55;52.60;;;49.92;;
9254;SDS011;4663;49.120;9.730;2022-10-28T14:55:25;29.10;;;27.23;;
9254;SDS011;4663;49.120;9.730;2022-10-28T14:57:50;28.23;;;26.70;;
9254;SDS011;4663;49.120;9.730;2022-10-28T15:00:18;30.40;;;28.58;;
9254;SDS011;4663;49.120;9.730;2022-10-28T15:02:44;28.77;;;27.20;;
9254;SDS011;4663;49.120;9.730;2022-10-28T15:07:35;27.45;;;25.95;;
9254;SDS011;4663;49.120;9.730;2022-10-28T15:10:10;27.90;;;26.27;;
9254;SDS011;4663;49.120;9.730;2022-10-28T15:12:38;29.65;;;27.88;;
9254;SDS011;4663;49.120;9.730;2022-10-28T15:15:14;29.70;;;27.90;;
9254;SDS011;4663;49.120;9.730;2022-10-28T15:17:51;28.52;;;26.92;;
9254;SDS011;4663;49.120;9.730;2022-10-28T15:22:50;28.17;;;26.65;;
9254;SDS011;4663;49.120;9.730;2022-10-28T15:25:19;29.10;;;27.40;;
9254;SDS011;4663;49.120;9.730;2022-10-28T15:27:46;30.85;;;28.52;;
9254;SDS011;4663;49.120;9.730;2022-10-28T15:32:41;27.90;;;26.17;;
9254;SDS011;4663;49.120;9.730;2022-10-28T15:37:51;29.20;;;27.60;;
9254;SDS011;4663;49.120;9.730;2022-10-28T15:45:29;29.27;;;27.67;;
9254;SDS011;4663;49.120;9.730;2022-10-28T15:47:57;28.63;;;26.92;;
9254;SDS011;4663;49.120;9.730;2022-10-28T15:52:52;27.00;;;25.25;;
9254;SDS011;4663;49.120;9.730;2022-10-28T15:55:38;27.70;;;26.00;;
9254;SDS011;4663;49.120;9.730;2022-10-28T16:03:23;22.90;;;21.58;;
9254;SDS011;4663;49.120;9.730;2022-10-28T16:06:03;22.77;;;20.73;;
9254;SDS011;4663;49.120;9.730;2022-10-28T16:08:29;19.35;;;18.05;;
9254;SDS011;4663;49.120;9.730;2022-10-28T16:11:00;20.95;;;19.48;;
9254;SDS011;4663;49.120;9.730;2022-10-28T16:16:11;18.25;;;16.85;;
9254;SDS011;4663;49.120;9.730;2022-10-28T16:18:43;18.70;;;17.42;;
9254;SDS011;4663;49.120;9.730;2022-10-28T16:21:19;20.15;;;18.85;;
9254;SDS011;4663;49.120;9.730;2022-10-28T16:23:50;20.00;;;18.60;;
9254;SDS011;4663;49.120;9.730;2022-10-28T16:26:20;20.30;;;18.73;;
9254;SDS011;4663;49.120;9.730;2022-10-28T16:28:46;20.50;;;19.30;;
9254;SDS011;4663;49.120;9.730;2022-10-28T16:31:15;23.17;;;21.42;;
9254;SDS011;4663;49.120;9.730;2022-10-28T16:33:42;22.73;;;21.38;;
9254;SDS011;4663;49.120;9.730;2022-10-28T16:36:08;21.08;;;19.65;;
9254;SDS011;4663;49.120;9.730;2022-10-28T16:38:34;21.17;;;19.95;;
9254;SDS011;4663;49.120;9.730;2022-10-28T16:41:00;21.73;;;20.10;;
9254;SDS011;4663;49.120;9.730;2022-10-28T16:43:28;23.80;;;21.88;;
9254;SDS011;4663;49.120;9.730;2022-10-28T16:45:54;22.80;;;21.05;;
9254;SDS011;4663;49.120;9.730;2022-10-28T16:48:25;23.88;;;22.20;;
9254;SDS011;4663;49.120;9.730;2022-10-28T16:50:53;23.27;;;21.90;;
9254;SDS011;4663;49.120;9.730;2022-10-28T16:53:21;24.85;;;23.33;;
9254;SDS011;4663;49.120;9.730;2022-10-28T16:55:47;26.02;;;23.92;;
9254;SDS011;4663;49.120;9.730;2022-10-28T16:58:13;27.55;;;25.92;;
9254;SDS011;4663;49.120;9.730;2022-10-28T17:00:38;26.42;;;24.90;;
9254;SDS011;4663;49.120;9.730;2022-10-28T17:03:04;28.80;;;27.02;;
9254;SDS011;4663;49.120;9.730;2022-10-28T17:05:30;29.77;;;28.00;;
9254;SDS011;4663;49.120;9.730;2022-10-28T17:07:56;29.80;;;27.95;;
9254;SDS011;4663;49.120;9.730;2022-10-28T17:10:23;31.27;;;29.15;;
9254;SDS011;4663;49.120;9.730;2022-10-28T17:12:49;31.63;;;29.63;;
9254;SDS011;4663;49.120;9.730;2022-10-28T17:15:14;32.50;;;30.52;;
9254;SDS011;4663;49.120;9.730;2022-10-28T17:17:40;32.72;;;30.65;;
9254;SDS011;4663;49.120;9.730;2022-10-28T17:20:05;32.90;;;31.08;;
9254;SDS011;4663;49.120;9.730;2022-10-28T17:22:31;33.70;;;31.63;;
9254;SDS011;4663;49.120;9.730;2022-10-28T17:24:57;34.55;;;32.65;;
9254;SDS011;4663;49.120;9.730;2022-10-28T17:27:22;34.63;;;32.42;;
9254;SDS011;4663;49.120;9.730;2022-10-28T17:29:47;34.22;;;31.98;;
9254;SDS011;4663;49.120;9.730;2022-10-28T17:32:13;30.88;;;29.13;;
9254;SDS011;4663;49.120;9.730;2022-10-28T17:34:39;32.83;;;31.02;;
9254;SDS011;4663;49.120;9.730;2022-10-28T17:37:04;31.55;;;29.40;;
9254;SDS011;4663;49.120;9.730;2022-10-28T17:39:30;31.65;;;29.83;;
9254;SDS011;4663;49.120;9.730;2022-10-28T17:41:55;30.95;;;29.08;;
9254;SDS011;4663;49.120;9.730;2022-10-28T17:44:20;30.63;;;28.88;;
9254;SDS011;4663;49.120;9.730;2022-10-28T17:46:49;28.60;;;26.90;;
9254;SDS011;4663;49.120;9.730;2022-10-28T17:49:15;27.25;;;25.33;;
9254;SDS011;4663;49.120;9.730;2022-10-28T17:51:42;29.38;;;27.70;;
9254;SDS011;4663;49.120;9.730;2022-10-28T17:54:08;30.83;;;28.63;;
9254;SDS011;4663;49.120;9.730;2022-10-28T17:56:33;25.85;;;23.95;;
9254;SDS011;4663;49.120;9.730;2022-10-28T17:58:59;26.27;;;24.45;;
9254;SDS011;4663;49.120;9.730;2022-10-28T18:01:26;25.65;;;24.13;;
9254;SDS011;4663;49.120;9.730;2022-10-28T18:03:55;22.90;;;21.63;;
9254;SDS011;4663;49.120;9.730;2022-10-28T18:06:21;22.92;;;21.30;;
9254;SDS011;4663;49.120;9.730;2022-10-28T18:08:47;22.75;;;21.10;;
9254;SDS011;4663;49.120;9.730;2022-10-28T18:11:13;23.60;;;22.13;;
9254;SDS011;4663;49.120;9.730;2022-10-28T18:13:40;22.15;;;20.30;;
9254;SDS011;4663;49.120;9.730;2022-10-28T18:18:38;23.80;;;22.30;;
9254;SDS011;4663;49.120;9.730;2022-10-28T18:21:04;24.73;;;22.98;;
9254;SDS011;4663;49.120;9.730;2022-10-28T18:23:29;27.45;;;25.80;;
9254;SDS011;4663;49.120;9.730;2022-10-28T18:28:25;32.33;;;30.35;;
9254;SDS011;4663;49.120;9.730;2022-10-28T18:30:51;39.95;;;37.25;;
9254;SDS011;4663;49.120;9.730;2022-10-28T18:33:17;38.55;;;36.28;;
9254;SDS011;4663;49.120;9.730;2022-10-28T18:35:43;42.25;;;39.72;;
9254;SDS011;4663;49.120;9.730;2022-10-28T18:38:08;46.90;;;44.45;;
9254;SDS011;4663;49.120;9.730;2022-10-28T18:40:34;46.65;;;43.97;;
9254;SDS011;4663;49.120;9.730;2022-10-28T18:42:59;50.75;;;47.88;;
9254;SDS011;4663;49.120;9.730;2022-10-28T18:45:24;51.58;;;48.35;;
9254;SDS011;4663;49.120;9.730;2022-10-28T18:47:50;54.38;;;51.22;;
9254;SDS011;4663;49.120;9.730;2022-10-28T18:50:15;63.65;;;60.10;;
9254;SDS011;4663;49.120;9.730;2022-10-28T18:52:41;61.60;;;58.33;;
9254;SDS011;4663;49.120;9.730;2022-10-28T18:55:06;58.08;;;54.97;;
9254;SDS011;4663;49.120;9.730;2022-10-28T18:57:32;58.22;;;54.75;;
9254;SDS011;4663;49.120;9.730;2022-10-28T18:59:58;54.22;;;50.95;;
9254;SDS011;4663;49.120;9.730;2022-10-28T19:02:23;54.13;;;50.88;;
9254;SDS011;4663;49.120;9.730;2022-10-28T19:04:49;52.00;;;48.70;;
9254;SDS011;4663;49.120;9.730;2022-10-28T19:07:14;53.35;;;50.45;;